createdAt,value
2024-01-24T00:00:53.398Z,2.38
2024-01-24T00:03:20.099Z,1.98
2024-01-24T00:05:54.165Z,1.40
2024-01-24T00:08:28.124Z,1.02
2024-01-24T00:11:03.315Z,1.00
2024-01-24T00:13:29.908Z,2.03
2024-01-24T00:16:01.486Z,1.33
2024-01-24T00:18:35.663Z,2.40
2024-01-24T00:23:34.728Z,1.23
2024-01-24T00:26:04.591Z,2.33
2024-01-24T00:28:32.687Z,2.05
2024-01-24T00:30:59.156Z,1.20
2024-01-24T00:33:27.004Z,6.57
2024-01-24T00:35:54.834Z,2.45
2024-01-24T00:38:21.434Z,0.88
2024-01-24T00:40:48.033Z,1.67
2024-01-24T00:43:14.823Z,1.20
2024-01-24T00:45:47.425Z,2.53
2024-01-24T00:48:13.966Z,1.85
2024-01-24T00:50:40.359Z,1.00
2024-01-24T00:53:07.494Z,2.15
2024-01-24T00:55:34.616Z,1.80
2024-01-24T00:58:01.534Z,2.10
2024-01-24T01:00:28.151Z,1.38
2024-01-24T01:02:54.525Z,2.05
2024-01-24T01:05:21.116Z,1.65
2024-01-24T01:07:47.722Z,2.72
2024-01-24T01:10:14.194Z,2.35
2024-01-24T01:12:40.624Z,1.17
2024-01-24T01:15:07.262Z,1.88
2024-01-24T01:17:33.723Z,2.83
2024-01-24T01:20:03.388Z,1.58
2024-01-24T01:22:37.494Z,2.97
2024-01-24T01:25:04.627Z,3.72
2024-01-24T01:27:33.918Z,2.22
2024-01-24T01:30:02.937Z,2.17
2024-01-24T01:32:36.643Z,2.40
2024-01-24T01:35:03.306Z,3.38
2024-01-24T01:37:35.815Z,2.40
2024-01-24T01:40:08.534Z,2.67
2024-01-24T01:42:35.131Z,2.58
2024-01-24T01:45:09.615Z,1.77
2024-01-24T01:47:40.233Z,2.20
2024-01-24T01:50:11.257Z,2.13
2024-01-24T01:52:41.864Z,3.65
2024-01-24T01:55:09.276Z,1.92
2024-01-24T01:57:43.603Z,2.95
2024-01-24T02:00:11.509Z,2.38
2024-01-24T02:02:38.176Z,1.88
2024-01-24T02:05:08.040Z,2.28
2024-01-24T02:07:37.374Z,2.08
2024-01-24T02:10:06.727Z,1.92
2024-01-24T02:12:37.883Z,2.75
2024-01-24T02:15:06.167Z,1.65
2024-01-24T02:17:35.086Z,1.25
2024-01-24T02:20:13.881Z,1.63
2024-01-24T02:22:40.530Z,1.02
2024-01-24T02:25:12.527Z,1.10
2024-01-24T02:27:44.011Z,1.25
2024-01-24T02:30:27.005Z,0.90
2024-01-24T02:32:53.480Z,0.80
2024-01-24T02:35:20.095Z,0.85
2024-01-24T02:37:46.546Z,0.85
2024-01-24T02:40:12.981Z,2.10
2024-01-24T02:42:39.559Z,1.00
2024-01-24T02:45:07.587Z,1.92
2024-01-24T02:47:36.032Z,2.25
2024-01-24T02:50:16.684Z,1.25
2024-01-24T02:52:43.225Z,2.97
2024-01-24T02:55:13.626Z,1.83
2024-01-24T02:57:41.354Z,4.47
2024-01-24T03:00:08.788Z,2.65
2024-01-24T03:02:37.618Z,5.40
2024-01-24T03:05:10.927Z,4.28
2024-01-24T03:07:43.538Z,0.10
2024-01-24T03:10:10.263Z,0.00
2024-01-24T03:12:39.484Z,0.10
2024-01-24T03:15:06.677Z,0.47
2024-01-24T03:17:34.183Z,0.32
2024-01-24T03:20:06.778Z,0.03
2024-01-24T03:22:33.137Z,0.00
2024-01-24T03:24:59.723Z,4.22
2024-01-24T03:27:26.106Z,0.00
2024-01-24T03:30:08.802Z,0.95
2024-01-24T03:32:35.239Z,0.10
2024-01-24T03:35:06.247Z,6.47
2024-01-24T03:37:32.625Z,7.63
2024-01-24T03:40:01.903Z,5.57
2024-01-24T03:42:44.122Z,3.55
2024-01-24T03:45:10.620Z,6.15
2024-01-24T03:47:41.401Z,3.13
2024-01-24T03:50:08.518Z,7.07
2024-01-24T03:53:01.037Z,7.35
2024-01-24T03:55:27.341Z,5.47
2024-01-24T03:57:57.727Z,9.07
2024-01-24T04:00:24.948Z,6.00
2024-01-24T04:02:51.697Z,5.22
2024-01-24T04:05:20.714Z,8.55
2024-01-24T04:07:47.129Z,8.48
2024-01-24T04:10:13.579Z,14.70
2024-01-24T04:12:45.375Z,6.57
2024-01-24T04:15:12.320Z,10.50
2024-01-24T04:17:40.938Z,8.82
2024-01-24T04:20:08.804Z,11.23
2024-01-24T04:22:38.308Z,7.72
2024-01-24T04:25:05.266Z,22.88
2024-01-24T04:27:31.794Z,13.82
2024-01-24T04:30:04.144Z,9.90
2024-01-24T04:32:33.716Z,12.85
2024-01-24T04:35:02.647Z,12.07
2024-01-24T04:37:31.915Z,10.70
2024-01-24T04:40:01.545Z,15.18
2024-01-24T04:42:30.651Z,10.95
2024-01-24T04:45:03.303Z,10.27
2024-01-24T04:47:31.258Z,10.25
2024-01-24T04:50:05.220Z,10.73
2024-01-24T04:52:31.966Z,12.20
2024-01-24T04:55:01.501Z,15.35
2024-01-24T04:57:28.233Z,13.23
2024-01-24T04:59:56.618Z,16.20
2024-01-24T05:02:26.178Z,12.73
2024-01-24T05:05:02.806Z,9.77
2024-01-24T05:07:29.168Z,17.10
2024-01-24T05:09:55.538Z,16.83
2024-01-24T05:12:26.439Z,14.25
2024-01-24T05:14:55.264Z,14.35
2024-01-24T05:17:21.861Z,21.88
2024-01-24T05:19:50.059Z,10.70
2024-01-24T05:22:31.890Z,14.63
2024-01-24T05:25:01.516Z,11.55
2024-01-24T05:27:35.275Z,9.63
2024-01-24T05:30:09.388Z,14.43
2024-01-24T05:32:43.087Z,14.43
2024-01-24T06:04:58.053Z,22.02
2024-01-24T06:21:20.455Z,30.35
2024-01-24T06:23:57.435Z,19.85
2024-01-24T06:46:06.765Z,16.77
2024-01-24T06:51:16.706Z,19.00
2024-01-24T06:53:43.212Z,19.48
2024-01-24T06:56:09.757Z,14.07
2024-01-24T06:58:39.100Z,23.58
2024-01-24T07:01:07.219Z,11.98
2024-01-24T07:03:34.262Z,15.25
2024-01-24T07:06:01.097Z,29.98
2024-01-24T07:08:28.287Z,11.55
2024-01-24T07:10:57.768Z,15.80
2024-01-24T07:13:24.410Z,14.70
2024-01-24T07:15:53.111Z,32.42
2024-01-24T07:18:19.652Z,17.85
2024-01-24T07:20:46.119Z,16.75
2024-01-24T07:23:16.306Z,21.42
2024-01-24T07:25:42.775Z,20.17
2024-01-24T07:28:09.639Z,18.80
2024-01-24T07:30:36.084Z,19.67
2024-01-24T07:33:04.874Z,17.42
2024-01-24T07:35:31.244Z,19.30
2024-01-24T08:05:36.293Z,26.30
2024-01-24T08:29:50.528Z,20.63
2024-01-24T08:32:24.037Z,23.30
2024-01-24T08:34:57.828Z,14.80
2024-01-24T08:37:24.292Z,27.77
2024-01-24T08:39:53.875Z,17.58
2024-01-24T08:42:23.937Z,28.63
2024-01-24T08:44:50.696Z,17.40
2024-01-24T08:47:17.374Z,17.30
2024-01-24T08:49:43.868Z,17.33
2024-01-24T08:52:13.444Z,32.95
2024-01-24T08:54:40.257Z,29.65
2024-01-24T08:57:27.586Z,23.70
2024-01-24T08:59:54.647Z,34.63
2024-01-24T09:02:26.641Z,18.73
2024-01-24T09:04:54.315Z,31.50
2024-01-24T09:07:21.404Z,23.92
2024-01-24T09:09:55.781Z,13.63
2024-01-24T09:14:54.000Z,25.73
2024-01-24T09:17:21.301Z,23.50
2024-01-24T09:19:48.335Z,32.58
2024-01-24T09:22:14.778Z,23.13
2024-01-24T09:24:41.258Z,20.50
2024-01-24T09:27:07.654Z,22.98
2024-01-24T09:29:34.232Z,29.95
2024-01-24T09:32:03.397Z,22.08
2024-01-24T09:34:33.769Z,21.23
2024-01-24T09:37:02.893Z,21.20
2024-01-24T09:39:30.062Z,19.48
2024-01-24T09:42:03.242Z,29.20
2024-01-24T09:44:31.600Z,22.97
2024-01-24T09:46:58.048Z,26.25
2024-01-24T09:49:25.009Z,22.50
2024-01-24T09:51:53.333Z,30.50
2024-01-24T09:54:23.436Z,31.75
2024-01-24T09:56:51.567Z,30.23
2024-01-24T09:59:20.389Z,33.85
2024-01-24T10:01:47.519Z,29.67
2024-01-24T10:04:22.015Z,22.52
2024-01-24T10:06:48.791Z,36.92
2024-01-24T10:09:21.993Z,30.95
2024-01-24T10:11:48.435Z,27.73
2024-01-24T10:14:25.965Z,24.05
2024-01-24T10:16:52.756Z,30.40
2024-01-24T10:19:22.910Z,34.80
2024-01-24T10:21:51.056Z,24.20
2024-01-24T10:24:20.253Z,27.23
2024-01-24T10:26:46.791Z,35.78
2024-01-24T10:29:13.434Z,32.67
2024-01-24T10:31:45.510Z,27.92
2024-01-24T10:34:12.385Z,33.95
2024-01-24T10:36:43.575Z,35.58
2024-01-24T10:39:12.369Z,27.10
2024-01-24T10:41:41.446Z,34.17
2024-01-24T10:44:11.164Z,40.33
2024-01-24T10:46:38.461Z,22.45
2024-01-24T10:49:10.995Z,28.52
2024-01-24T10:51:48.353Z,19.92
2024-01-24T10:54:26.168Z,27.52
2024-01-24T10:56:52.908Z,26.17
2024-01-24T10:59:42.855Z,30.25
2024-01-24T11:02:10.260Z,40.50
2024-01-24T11:04:40.178Z,28.58
2024-01-24T11:07:13.200Z,31.13
2024-01-24T11:10:10.599Z,37.75
2024-01-24T11:12:40.599Z,24.75
2024-01-24T11:15:13.000Z,22.48
2024-01-24T11:17:45.189Z,34.72
2024-01-24T11:20:15.308Z,37.17
2024-01-24T11:22:42.469Z,32.55
2024-01-24T11:25:12.957Z,36.38
2024-01-24T11:27:42.491Z,31.05
2024-01-24T11:30:15.465Z,29.58
2024-01-24T11:32:45.915Z,29.33
2024-01-24T11:35:28.249Z,38.38
2024-01-24T11:38:08.709Z,31.77
2024-01-24T11:40:43.820Z,38.75
2024-01-24T11:43:31.900Z,27.63
2024-01-24T11:46:05.050Z,23.73
2024-01-24T11:48:33.481Z,29.98
2024-01-24T11:51:04.060Z,19.63
2024-01-24T11:53:30.686Z,28.80
2024-01-24T11:56:03.212Z,35.53
2024-01-24T11:58:30.525Z,28.48
2024-01-24T12:00:57.960Z,24.27
2024-01-24T12:03:24.743Z,38.30
2024-01-24T12:05:54.457Z,31.40
2024-01-24T12:08:28.889Z,34.45
2024-01-24T12:10:55.319Z,23.90
2024-01-24T12:13:27.340Z,39.03
2024-01-24T12:15:56.020Z,33.78
2024-01-24T12:18:23.030Z,30.73
2024-01-24T12:20:55.565Z,39.58
2024-01-24T12:23:26.644Z,25.63
2024-01-24T12:25:53.409Z,43.63
2024-01-24T12:55:28.410Z,4.53
2024-01-24T12:57:55.044Z,0.17
2024-01-24T13:00:26.668Z,0.10
2024-01-24T13:02:54.159Z,0.10
2024-01-24T13:05:25.996Z,4.97
2024-01-24T13:10:46.555Z,0.20
2024-01-24T13:13:14.217Z,11.38
2024-01-24T13:15:41.660Z,0.32
2024-01-24T13:18:09.697Z,5.72
2024-01-24T13:20:39.066Z,1.05
2024-01-24T13:23:05.613Z,2.63
2024-01-24T13:25:32.304Z,15.93
2024-01-24T13:28:08.748Z,3.15
2024-01-24T13:30:36.335Z,1.55
2024-01-24T13:33:05.393Z,1.65
2024-01-24T13:35:33.323Z,0.10
2024-01-24T13:38:00.501Z,1.08
2024-01-24T13:40:30.732Z,0.10
2024-01-24T13:42:57.333Z,0.38
2024-01-24T13:45:50.915Z,2.75
2024-01-24T13:48:18.138Z,2.17
2024-01-24T13:50:44.614Z,2.72
2024-01-24T13:53:13.915Z,0.63
2024-01-24T13:55:41.163Z,4.00
2024-01-24T13:58:10.471Z,0.65
2024-01-24T14:03:20.628Z,1.92
2024-01-24T14:05:47.171Z,1.08
2024-01-24T14:08:13.793Z,34.95
2024-01-24T14:10:52.576Z,0.00
2024-01-24T14:13:42.131Z,2.17
2024-01-24T14:16:11.503Z,0.15
2024-01-24T14:18:41.234Z,1.77
2024-01-24T14:21:14.407Z,2.05
2024-01-24T14:24:02.032Z,1.20
2024-01-24T14:26:31.572Z,2.58
2024-01-24T14:29:01.137Z,0.10
2024-01-24T14:31:35.759Z,0.93
2024-01-24T14:34:03.435Z,1.58
2024-01-24T14:36:36.475Z,3.58
2024-01-24T14:39:05.340Z,3.60
2024-01-24T14:41:34.589Z,0.40
2024-01-24T14:44:01.102Z,0.10
2024-01-24T14:46:35.269Z,32.78
2024-01-24T14:49:01.784Z,31.63
2024-01-24T14:51:30.597Z,32.40
2024-01-24T14:53:57.754Z,36.45
2024-01-24T14:56:24.188Z,24.38
2024-01-24T14:58:54.038Z,26.15
2024-01-24T15:01:20.781Z,32.30
2024-01-24T15:03:50.965Z,26.70
2024-01-24T15:08:58.769Z,13.30
2024-01-24T15:11:25.133Z,28.50
2024-01-24T15:13:51.569Z,23.33
2024-01-24T15:16:19.251Z,31.25
2024-01-24T15:18:47.258Z,23.00
2024-01-24T15:21:14.926Z,31.88
2024-01-24T15:23:44.948Z,19.92
2024-01-24T15:26:14.905Z,27.13
2024-01-24T15:28:41.674Z,33.10
2024-01-24T15:31:08.678Z,22.65
2024-01-24T15:33:36.162Z,30.10
2024-01-24T15:36:05.900Z,25.13
2024-01-24T15:38:32.481Z,28.58
2024-01-24T15:43:39.568Z,21.92
2024-01-24T15:46:07.271Z,21.38
2024-01-24T15:48:37.465Z,19.00
2024-01-24T15:51:04.425Z,26.70
2024-01-24T15:53:34.098Z,16.42
2024-01-24T15:56:01.364Z,23.55
2024-01-24T15:58:39.588Z,19.88
2024-01-24T16:01:07.052Z,21.13
2024-01-24T16:03:39.817Z,20.15
2024-01-24T16:06:09.793Z,29.63
2024-01-24T16:08:39.010Z,35.85
2024-01-24T16:11:07.817Z,30.38
2024-01-24T16:13:34.483Z,28.33
2024-01-24T16:16:03.624Z,32.65
2024-01-24T16:18:39.730Z,33.42
2024-01-24T16:21:06.293Z,31.27
2024-01-24T16:23:33.089Z,26.27
2024-01-24T16:26:03.716Z,28.35
2024-01-24T16:28:30.280Z,34.40
2024-01-24T16:31:00.703Z,34.60
2024-01-24T16:33:30.400Z,20.25
2024-01-24T16:35:57.116Z,24.02
2024-01-24T16:38:23.654Z,41.63
2024-01-24T16:40:53.396Z,32.33
2024-01-24T16:43:20.296Z,19.25
2024-01-24T16:45:49.196Z,26.63
2024-01-24T16:48:17.227Z,24.95
2024-01-24T16:50:46.098Z,30.20
2024-01-24T16:53:12.579Z,28.92
2024-01-24T16:56:04.796Z,28.65
2024-01-24T16:58:43.717Z,33.05
2024-01-24T17:01:13.229Z,20.80
2024-01-24T17:03:40.168Z,24.95
2024-01-24T17:06:10.876Z,27.55
2024-01-24T17:08:45.751Z,33.00
2024-01-24T17:11:16.729Z,28.17
2024-01-24T17:13:43.120Z,22.55
2024-01-24T17:16:09.506Z,28.85
2024-01-24T17:18:48.818Z,28.20
2024-01-24T17:21:15.496Z,19.83
2024-01-24T17:23:49.587Z,26.17
2024-01-24T17:26:27.810Z,24.67
2024-01-24T17:28:56.578Z,24.90
2024-01-24T17:31:40.963Z,28.73
2024-01-24T17:34:11.521Z,27.90
2024-01-24T17:36:43.564Z,25.85
2024-01-24T17:39:18.046Z,24.25
2024-01-24T18:00:59.224Z,20.30
2024-01-24T18:14:56.997Z,17.73
2024-01-24T18:17:23.541Z,19.35
2024-01-24T18:30:37.647Z,29.05
2024-01-24T18:35:50.044Z,25.38
2024-01-24T18:38:19.842Z,22.67
2024-01-24T18:46:29.580Z,22.38
2024-01-24T18:49:01.235Z,13.93
2024-01-24T18:51:29.931Z,24.58
2024-01-24T18:56:49.306Z,19.85
2024-01-24T19:21:18.218Z,25.52
2024-01-24T19:23:50.962Z,24.13
2024-01-24T19:26:49.635Z,15.18
2024-01-24T19:40:15.952Z,14.55
2024-01-24T19:45:28.718Z,27.00
2024-01-24T19:50:36.288Z,26.52
2024-01-24T20:09:08.617Z,11.40
2024-01-24T20:11:35.062Z,22.20
2024-01-24T20:14:01.528Z,13.48
2024-01-24T20:40:56.696Z,21.30
2024-01-24T20:51:39.968Z,28.73
2024-01-24T20:54:08.205Z,14.93
2024-01-24T20:56:37.474Z,18.65
2024-01-24T21:40:59.560Z,28.60
2024-01-24T21:43:26.612Z,15.75
2024-01-24T21:45:53.480Z,25.00
2024-01-24T21:48:20.372Z,25.83
2024-01-24T21:50:47.066Z,15.93
2024-01-24T21:53:13.447Z,21.63
2024-01-24T21:55:39.982Z,26.58
2024-01-24T21:58:06.691Z,15.48
2024-01-24T22:00:36.424Z,18.33
2024-01-24T22:03:03.302Z,26.75
2024-01-24T22:05:29.745Z,21.08
2024-01-24T22:07:59.100Z,19.35
2024-01-24T22:10:28.082Z,18.23
2024-01-24T22:12:59.788Z,24.00
2024-01-24T22:15:27.025Z,20.40
2024-01-24T22:17:54.645Z,22.80
2024-01-24T22:20:24.307Z,21.95
2024-01-24T22:22:50.803Z,25.60
2024-01-24T22:25:17.435Z,25.60
2024-01-24T22:27:46.320Z,30.55
2024-01-24T22:30:13.231Z,30.38
2024-01-24T22:32:39.649Z,25.27
2024-01-24T22:35:06.706Z,19.73
2024-01-24T22:37:33.461Z,31.17
2024-01-24T22:39:59.982Z,13.90
2024-01-24T22:42:26.422Z,21.00
2024-01-24T22:44:52.757Z,25.58
2024-01-24T22:47:27.737Z,25.45
2024-01-24T22:49:56.557Z,27.23
2024-01-24T22:52:22.947Z,26.63
2024-01-24T22:54:51.569Z,24.65
2024-01-24T22:57:19.436Z,29.83
2024-01-24T22:59:48.563Z,20.45
2024-01-24T23:02:19.597Z,31.83
2024-01-24T23:04:49.195Z,33.03
2024-01-24T23:07:15.791Z,28.77
2024-01-24T23:09:42.498Z,22.50
2024-01-24T23:12:09.111Z,28.95
2024-01-24T23:14:35.594Z,22.10
2024-01-24T23:17:02.147Z,26.95
2024-01-24T23:19:28.624Z,25.67
2024-01-24T23:21:57.877Z,37.20
2024-01-24T23:24:24.402Z,25.48
2024-01-24T23:26:50.804Z,28.08
2024-01-24T23:29:17.167Z,28.63
2024-01-24T23:31:51.526Z,21.90
2024-01-24T23:36:53.210Z,25.05
2024-01-24T23:39:19.595Z,24.35
2024-01-24T23:41:47.929Z,25.65
2024-01-24T23:44:14.433Z,27.98
2024-01-24T23:46:41.245Z,21.85
2024-01-24T23:49:08.375Z,30.88
2024-01-24T23:51:36.486Z,20.13
2024-01-24T23:54:07.914Z,17.55
2024-01-24T23:56:34.321Z,27.85
2024-01-24T23:59:04.040Z,25.65
